Terminal Aerodrome Forecast
Issued by NWS

Home | Current Version | Previous Version | Text Only | Print | Product List | Glossary On
Versions: 1 2 3 4 5 6 7 8 9 10 11 12
000
FTUS41 KBGM 271730
TAFELM
TAF
KELM 271730Z 2718/2818 24008KT P6SM BKN035
     FM280000 00000KT P6SM FEW060 SCT200
      TEMPO 2808/2811 3SM BR
     FM281700 VRB03KT P6SM BKN050=

USA.gov is the U.S. government's official web portal to all federal, state and local government web resources and services.